sensor_id;sensor_type;location;lat;lon;timestamp;temperature;humidity
64924;HTU21D;51436;44.692;39.214;2023-11-21T00:02:22;6.95;71.48
64924;HTU21D;51436;44.692;39.214;2023-11-21T00:04:49;6.88;71.45
64924;HTU21D;51436;44.692;39.214;2023-11-21T00:07:15;6.81;71.51
64924;HTU21D;51436;44.692;39.214;2023-11-21T00:12:48;6.68;71.64
64924;HTU21D;51436;44.692;39.214;2023-11-21T00:15:15;6.70;71.53
64924;HTU21D;51436;44.692;39.214;2023-11-21T00:17:41;6.73;71.38
64924;HTU21D;51436;44.692;39.214;2023-11-21T00:20:11;6.69;71.38
64924;HTU21D;51436;44.692;39.214;2023-11-21T00:22:39;6.76;71.15
64924;HTU21D;51436;44.692;39.214;2023-11-21T00:25:07;6.76;71.09
64924;HTU21D;51436;44.692;39.214;2023-11-21T00:27:37;6.67;71.23
64924;HTU21D;51436;44.692;39.214;2023-11-21T00:30:04;6.61;71.37
64924;HTU21D;51436;44.692;39.214;2023-11-21T00:32:32;6.55;71.45
64924;HTU21D;51436;44.692;39.214;2023-11-21T00:34:58;6.56;71.43
64924;HTU21D;51436;44.692;39.214;2023-11-21T00:37:25;6.59;71.32
64924;HTU21D;51436;44.692;39.214;2023-11-21T00:39:52;6.59;71.28
64924;HTU21D;51436;44.692;39.214;2023-11-21T00:42:18;6.57;71.29
64924;HTU21D;51436;44.692;39.214;2023-11-21T00:44:44;6.52;71.36
64924;HTU21D;51436;44.692;39.214;2023-11-21T00:47:11;6.50;71.38
64924;HTU21D;51436;44.692;39.214;2023-11-21T00:49:42;6.49;71.37
64924;HTU21D;51436;44.692;39.214;2023-11-21T00:52:09;6.53;71.20
64924;HTU21D;51436;44.692;39.214;2023-11-21T00:54:38;6.41;71.33
64924;HTU21D;51436;44.692;39.214;2023-11-21T00:57:05;6.29;71.63
64924;HTU21D;51436;44.692;39.214;2023-11-21T00:59:32;6.20;71.78
64924;HTU21D;51436;44.692;39.214;2023-11-21T01:01:58;6.11;71.90
64924;HTU21D;51436;44.692;39.214;2023-11-21T01:04:27;6.15;71.81
64924;HTU21D;51436;44.692;39.214;2023-11-21T01:06:54;6.16;71.73
64924;HTU21D;51436;44.692;39.214;2023-11-21T01:09:20;6.24;71.67
64924;HTU21D;51436;44.692;39.214;2023-11-21T01:11:46;6.25;71.44
64924;HTU21D;51436;44.692;39.214;2023-11-21T01:14:13;6.19;71.67
64924;HTU21D;51436;44.692;39.214;2023-11-21T01:16:40;6.31;71.38
64924;HTU21D;51436;44.692;39.214;2023-11-21T01:19:06;6.42;71.25
64924;HTU21D;51436;44.692;39.214;2023-11-21T01:21:33;6.42;71.07
64924;HTU21D;51436;44.692;39.214;2023-11-21T01:23:59;6.34;71.36
64924;HTU21D;51436;44.692;39.214;2023-11-21T01:26:26;6.46;71.26
64924;HTU21D;51436;44.692;39.214;2023-11-21T01:28:52;6.60;71.00
64924;HTU21D;51436;44.692;39.214;2023-11-21T01:31:18;6.76;70.64
64924;HTU21D;51436;44.692;39.214;2023-11-21T01:33:46;6.73;70.69
64924;HTU21D;51436;44.692;39.214;2023-11-21T01:36:15;6.82;70.72
64924;HTU21D;51436;44.692;39.214;2023-11-21T01:38:41;6.85;70.56
64924;HTU21D;51436;44.692;39.214;2023-11-21T01:41:08;6.82;70.74
64924;HTU21D;51436;44.692;39.214;2023-11-21T01:43:37;6.72;71.00
64924;HTU21D;51436;44.692;39.214;2023-11-21T01:46:03;6.72;71.04
64924;HTU21D;51436;44.692;39.214;2023-11-21T01:48:33;6.75;70.95
64924;HTU21D;51436;44.692;39.214;2023-11-21T01:51:00;6.85;70.79
64924;HTU21D;51436;44.692;39.214;2023-11-21T01:53:27;6.94;70.70
64924;HTU21D;51436;44.692;39.214;2023-11-21T01:55:55;6.95;70.55
64924;HTU21D;51436;44.692;39.214;2023-11-21T01:58:22;6.97;70.76
64924;HTU21D;51436;44.692;39.214;2023-11-21T02:00:48;7.10;70.52
64924;HTU21D;51436;44.692;39.214;2023-11-21T02:03:17;7.19;70.29
64924;HTU21D;51436;44.692;39.214;2023-11-21T02:05:43;7.14;70.39
64924;HTU21D;51436;44.692;39.214;2023-11-21T02:08:09;7.16;70.54
64924;HTU21D;51436;44.692;39.214;2023-11-21T02:10:36;7.20;70.39
64924;HTU21D;51436;44.692;39.214;2023-11-21T02:13:03;7.15;70.51
64924;HTU21D;51436;44.692;39.214;2023-11-21T02:15:30;7.00;70.91
64924;HTU21D;51436;44.692;39.214;2023-11-21T02:17:56;7.05;70.82
64924;HTU21D;51436;44.692;39.214;2023-11-21T02:20:24;7.07;70.84
64924;HTU21D;51436;44.692;39.214;2023-11-21T02:22:53;7.19;70.55
64924;HTU21D;51436;44.692;39.214;2023-11-21T02:25:31;7.19;70.48
64924;HTU21D;51436;44.692;39.214;2023-11-21T02:28:01;7.11;70.69
64924;HTU21D;51436;44.692;39.214;2023-11-21T02:30:28;7.03;70.81
64924;HTU21D;51436;44.692;39.214;2023-11-21T02:32:58;6.86;71.10
64924;HTU21D;51436;44.692;39.214;2023-11-21T02:35:25;6.67;71.46
64924;HTU21D;51436;44.692;39.214;2023-11-21T02:37:55;6.66;71.62
64924;HTU21D;51436;44.692;39.214;2023-11-21T02:40:21;6.74;71.35
64924;HTU21D;51436;44.692;39.214;2023-11-21T02:42:52;6.71;71.22
64924;HTU21D;51436;44.692;39.214;2023-11-21T02:45:20;6.66;71.34
64924;HTU21D;51436;44.692;39.214;2023-11-21T02:47:50;6.64;71.51
64924;HTU21D;51436;44.692;39.214;2023-11-21T02:50:19;6.86;70.99
64924;HTU21D;51436;44.692;39.214;2023-11-21T02:52:45;6.93;70.74
64924;HTU21D;51436;44.692;39.214;2023-11-21T02:55:11;7.00;70.71
64924;HTU21D;51436;44.692;39.214;2023-11-21T02:57:41;6.89;70.73
64924;HTU21D;51436;44.692;39.214;2023-11-21T03:00:08;6.74;71.15
64924;HTU21D;51436;44.692;39.214;2023-11-21T03:02:36;6.73;71.32
64924;HTU21D;51436;44.692;39.214;2023-11-21T03:05:06;6.76;71.19
64924;HTU21D;51436;44.692;39.214;2023-11-21T03:07:32;6.84;71.04
64924;HTU21D;51436;44.692;39.214;2023-11-21T03:09:59;6.95;70.81
64924;HTU21D;51436;44.692;39.214;2023-11-21T03:12:25;6.96;70.71
64924;HTU21D;51436;44.692;39.214;2023-11-21T03:14:52;6.97;70.81
64924;HTU21D;51436;44.692;39.214;2023-11-21T03:17:24;6.93;70.84
64924;HTU21D;51436;44.692;39.214;2023-11-21T03:19:51;6.95;70.93
64924;HTU21D;51436;44.692;39.214;2023-11-21T03:22:18;7.00;70.77
64924;HTU21D;51436;44.692;39.214;2023-11-21T03:24:45;6.89;70.98
64924;HTU21D;51436;44.692;39.214;2023-11-21T03:27:11;6.94;70.92
64924;HTU21D;51436;44.692;39.214;2023-11-21T03:29:38;7.01;70.83
64924;HTU21D;51436;44.692;39.214;2023-11-21T03:32:05;7.08;70.64
64924;HTU21D;51436;44.692;39.214;2023-11-21T03:34:33;7.10;70.55
64924;HTU21D;51436;44.692;39.214;2023-11-21T03:37:00;7.18;70.45
64924;HTU21D;51436;44.692;39.214;2023-11-21T03:39:27;7.24;70.35
64924;HTU21D;51436;44.692;39.214;2023-11-21T03:42:00;7.24;70.38
64924;HTU21D;51436;44.692;39.214;2023-11-21T03:44:26;7.15;70.58
64924;HTU21D;51436;44.692;39.214;2023-11-21T03:46:52;7.14;70.69
64924;HTU21D;51436;44.692;39.214;2023-11-21T03:49:19;7.19;70.46
64924;HTU21D;51436;44.692;39.214;2023-11-21T03:51:45;7.16;70.54
64924;HTU21D;51436;44.692;39.214;2023-11-21T03:54:12;6.99;70.87
64924;HTU21D;51436;44.692;39.214;2023-11-21T03:56:39;6.82;71.32
64924;HTU21D;51436;44.692;39.214;2023-11-21T03:59:06;6.83;71.29
64924;HTU21D;51436;44.692;39.214;2023-11-21T04:01:32;6.81;71.20
64924;HTU21D;51436;44.692;39.214;2023-11-21T04:03:59;6.81;71.15
64924;HTU21D;51436;44.692;39.214;2023-11-21T04:06:25;6.76;71.23
64924;HTU21D;51436;44.692;39.214;2023-11-21T04:08:51;6.76;71.21
64924;HTU21D;51436;44.692;39.214;2023-11-21T04:11:18;6.70;71.32
64924;HTU21D;51436;44.692;39.214;2023-11-21T04:13:44;6.70;71.36
64924;HTU21D;51436;44.692;39.214;2023-11-21T04:16:12;6.78;71.10
64924;HTU21D;51436;44.692;39.214;2023-11-21T04:18:39;6.88;70.94
64924;HTU21D;51436;44.692;39.214;2023-11-21T04:21:06;6.88;70.83
64924;HTU21D;51436;44.692;39.214;2023-11-21T04:23:32;6.80;71.05
64924;HTU21D;51436;44.692;39.214;2023-11-21T04:25:59;6.78;71.16
64924;HTU21D;51436;44.692;39.214;2023-11-21T04:28:25;6.85;70.95
64924;HTU21D;51436;44.692;39.214;2023-11-21T04:30:51;6.80;71.01
64924;HTU21D;51436;44.692;39.214;2023-11-21T04:33:18;6.83;70.96
64924;HTU21D;51436;44.692;39.214;2023-11-21T04:35:44;6.86;70.99
64924;HTU21D;51436;44.692;39.214;2023-11-21T04:38:16;6.81;70.90
64924;HTU21D;51436;44.692;39.214;2023-11-21T04:40:42;6.68;71.20
64924;HTU21D;51436;44.692;39.214;2023-11-21T04:43:08;6.68;71.30
64924;HTU21D;51436;44.692;39.214;2023-11-21T04:45:35;6.66;71.25
64924;HTU21D;51436;44.692;39.214;2023-11-21T04:48:01;6.70;71.19
64924;HTU21D;51436;44.692;39.214;2023-11-21T04:50:27;6.82;70.91
64924;HTU21D;51436;44.692;39.214;2023-11-21T04:52:54;6.93;70.68
64924;HTU21D;51436;44.692;39.214;2023-11-21T04:55:20;6.95;70.58
64924;HTU21D;51436;44.692;39.214;2023-11-21T04:57:46;6.91;70.71
64924;HTU21D;51436;44.692;39.214;2023-11-21T05:00:16;6.98;70.57
64924;HTU21D;51436;44.692;39.214;2023-11-21T05:02:43;6.98;70.63
64924;HTU21D;51436;44.692;39.214;2023-11-21T05:05:16;6.91;70.65
64924;HTU21D;51436;44.692;39.214;2023-11-21T05:07:42;6.90;70.85
64924;HTU21D;51436;44.692;39.214;2023-11-21T05:10:09;6.87;70.82
64924;HTU21D;51436;44.692;39.214;2023-11-21T05:12:41;6.78;71.01
64924;HTU21D;51436;44.692;39.214;2023-11-21T05:15:08;6.67;71.19
64924;HTU21D;51436;44.692;39.214;2023-11-21T05:17:38;6.57;71.46
64924;HTU21D;51436;44.692;39.214;2023-11-21T05:20:12;6.60;71.30
64924;HTU21D;51436;44.692;39.214;2023-11-21T05:22:43;6.67;71.16
64924;HTU21D;51436;44.692;39.214;2023-11-21T05:25:09;6.60;71.14
64924;HTU21D;51436;44.692;39.214;2023-11-21T05:27:39;6.60;71.22
64924;HTU21D;51436;44.692;39.214;2023-11-21T05:30:06;6.79;70.96
64924;HTU21D;51436;44.692;39.214;2023-11-21T05:32:33;7.01;70.36
64924;HTU21D;51436;44.692;39.214;2023-11-21T05:35:00;7.00;70.31
64924;HTU21D;51436;44.692;39.214;2023-11-21T05:37:27;6.97;70.46
64924;HTU21D;51436;44.692;39.214;2023-11-21T05:39:53;6.93;70.56
64924;HTU21D;51436;44.692;39.214;2023-11-21T05:42:23;7.02;70.45
64924;HTU21D;51436;44.692;39.214;2023-11-21T05:44:49;7.08;70.31
64924;HTU21D;51436;44.692;39.214;2023-11-21T05:47:16;7.08;70.26
64924;HTU21D;51436;44.692;39.214;2023-11-21T05:49:43;7.10;70.32
64924;HTU21D;51436;44.692;39.214;2023-11-21T05:52:11;7.22;70.13
64924;HTU21D;51436;44.692;39.214;2023-11-21T05:54:37;7.34;69.84
64924;HTU21D;51436;44.692;39.214;2023-11-21T05:57:03;7.33;69.90
64924;HTU21D;51436;44.692;39.214;2023-11-21T05:59:30;7.40;69.83
64924;HTU21D;51436;44.692;39.214;2023-11-21T06:01:56;7.35;69.87
64924;HTU21D;51436;44.692;39.214;2023-11-21T06:04:23;7.27;70.14
64924;HTU21D;51436;44.692;39.214;2023-11-21T06:06:51;7.23;70.26
64924;HTU21D;51436;44.692;39.214;2023-11-21T06:09:18;7.25;70.23
64924;HTU21D;51436;44.692;39.214;2023-11-21T06:11:45;7.42;69.92
64924;HTU21D;51436;44.692;39.214;2023-11-21T06:14:11;7.54;69.60
64924;HTU21D;51436;44.692;39.214;2023-11-21T06:16:37;7.46;69.77
64924;HTU21D;51436;44.692;39.214;2023-11-21T06:19:04;7.43;69.87
64924;HTU21D;51436;44.692;39.214;2023-11-21T06:21:31;7.39;70.00
64924;HTU21D;51436;44.692;39.214;2023-11-21T06:23:58;7.40;69.95
64924;HTU21D;51436;44.692;39.214;2023-11-21T06:26:24;7.41;69.90
64924;HTU21D;51436;44.692;39.214;2023-11-21T06:28:51;7.43;69.91
64924;HTU21D;51436;44.692;39.214;2023-11-21T06:31:18;7.40;69.85
64924;HTU21D;51436;44.692;39.214;2023-11-21T06:33:45;7.37;70.01
64924;HTU21D;51436;44.692;39.214;2023-11-21T06:36:12;7.30;70.12
64924;HTU21D;51436;44.692;39.214;2023-11-21T06:38:38;7.20;70.25
64924;HTU21D;51436;44.692;39.214;2023-11-21T06:41:05;7.12;70.38
64924;HTU21D;51436;44.692;39.214;2023-11-21T06:43:32;7.11;70.42
64924;HTU21D;51436;44.692;39.214;2023-11-21T06:45:58;7.11;70.35
64924;HTU21D;51436;44.692;39.214;2023-11-21T06:48:25;7.22;70.10
64924;HTU21D;51436;44.692;39.214;2023-11-21T06:50:51;7.26;69.93
64924;HTU21D;51436;44.692;39.214;2023-11-21T06:53:18;7.25;69.94
64924;HTU21D;51436;44.692;39.214;2023-11-21T06:55:45;7.28;69.87
64924;HTU21D;51436;44.692;39.214;2023-11-21T06:58:11;7.37;69.78
64924;HTU21D;51436;44.692;39.214;2023-11-21T07:00:38;7.35;69.68
64924;HTU21D;51436;44.692;39.214;2023-11-21T07:03:04;7.41;69.65
64924;HTU21D;51436;44.692;39.214;2023-11-21T07:05:30;7.49;69.57
64924;HTU21D;51436;44.692;39.214;2023-11-21T07:07:56;7.55;69.39
64924;HTU21D;51436;44.692;39.214;2023-11-21T07:10:26;7.47;69.51
64924;HTU21D;51436;44.692;39.214;2023-11-21T07:13:12;7.40;69.67
64924;HTU21D;51436;44.692;39.214;2023-11-21T07:15:38;7.39;69.71
64924;HTU21D;51436;44.692;39.214;2023-11-21T07:18:05;7.25;69.93
64924;HTU21D;51436;44.692;39.214;2023-11-21T07:20:33;7.16;70.14
64924;HTU21D;51436;44.692;39.214;2023-11-21T07:23:00;7.09;70.19
64924;HTU21D;51436;44.692;39.214;2023-11-21T07:25:26;6.97;70.35
64924;HTU21D;51436;44.692;39.214;2023-11-21T07:27:53;6.89;70.45
64924;HTU21D;51436;44.692;39.214;2023-11-21T07:30:20;6.83;70.55
64924;HTU21D;51436;44.692;39.214;2023-11-21T07:32:48;6.85;70.48
64924;HTU21D;51436;44.692;39.214;2023-11-21T07:35:15;6.82;70.43
64924;HTU21D;51436;44.692;39.214;2023-11-21T07:37:41;6.79;70.48
64924;HTU21D;51436;44.692;39.214;2023-11-21T07:40:09;6.71;70.55
64924;HTU21D;51436;44.692;39.214;2023-11-21T07:42:38;6.75;70.42
64924;HTU21D;51436;44.692;39.214;2023-11-21T07:45:10;6.85;70.29
64924;HTU21D;51436;44.692;39.214;2023-11-21T07:47:39;6.99;69.90
64924;HTU21D;51436;44.692;39.214;2023-11-21T07:50:06;6.94;70.00
64924;HTU21D;51436;44.692;39.214;2023-11-21T07:52:33;6.95;70.13
64924;HTU21D;51436;44.692;39.214;2023-11-21T07:54:59;7.23;69.68
64924;HTU21D;51436;44.692;39.214;2023-11-21T07:57:26;7.44;69.31
64924;HTU21D;51436;44.692;39.214;2023-11-21T07:59:52;7.53;69.03
64924;HTU21D;51436;44.692;39.214;2023-11-21T08:02:20;7.55;69.10
64924;HTU21D;51436;44.692;39.214;2023-11-21T08:04:46;7.55;69.28
64924;HTU21D;51436;44.692;39.214;2023-11-21T08:07:36;7.57;69.22
64924;HTU21D;51436;44.692;39.214;2023-11-21T08:10:03;7.45;69.36
64924;HTU21D;51436;44.692;39.214;2023-11-21T08:12:33;7.40;69.73
64924;HTU21D;51436;44.692;39.214;2023-11-21T08:15:00;7.59;69.40
64924;HTU21D;51436;44.692;39.214;2023-11-21T08:17:28;7.62;69.20
64924;HTU21D;51436;44.692;39.214;2023-11-21T08:19:55;7.44;69.53
64924;HTU21D;51436;44.692;39.214;2023-11-21T08:22:21;7.22;69.98
64924;HTU21D;51436;44.692;39.214;2023-11-21T08:24:48;7.13;70.21
64924;HTU21D;51436;44.692;39.214;2023-11-21T08:27:14;7.04;70.32
64924;HTU21D;51436;44.692;39.214;2023-11-21T08:29:42;6.96;70.46
64924;HTU21D;51436;44.692;39.214;2023-11-21T08:32:09;7.07;70.23
64924;HTU21D;51436;44.692;39.214;2023-11-21T08:34:38;7.25;69.78
64924;HTU21D;51436;44.692;39.214;2023-11-21T08:37:05;7.35;69.52
64924;HTU21D;51436;44.692;39.214;2023-11-21T08:39:32;7.32;69.58
64924;HTU21D;51436;44.692;39.214;2023-11-21T08:41:58;7.33;69.56
64924;HTU21D;51436;44.692;39.214;2023-11-21T08:44:24;7.30;69.70
64924;HTU21D;51436;44.692;39.214;2023-11-21T08:46:51;7.29;69.77
64924;HTU21D;51436;44.692;39.214;2023-11-21T08:49:17;7.33;69.69
64924;HTU21D;51436;44.692;39.214;2023-11-21T08:51:44;7.42;69.55
64924;HTU21D;51436;44.692;39.214;2023-11-21T08:54:11;7.48;69.38
64924;HTU21D;51436;44.692;39.214;2023-11-21T08:56:38;7.58;69.23
64924;HTU21D;51436;44.692;39.214;2023-11-21T08:59:04;7.64;69.09
64924;HTU21D;51436;44.692;39.214;2023-11-21T09:01:31;7.73;68.95
64924;HTU21D;51436;44.692;39.214;2023-11-21T09:03:58;7.75;68.94
64924;HTU21D;51436;44.692;39.214;2023-11-21T09:06:25;7.76;68.94
64924;HTU21D;51436;44.692;39.214;2023-11-21T09:08:51;7.81;68.98
64924;HTU21D;51436;44.692;39.214;2023-11-21T09:11:17;7.86;68.90
64924;HTU21D;51436;44.692;39.214;2023-11-21T09:13:44;7.96;68.72
64924;HTU21D;51436;44.692;39.214;2023-11-21T09:16:11;7.87;68.81
64924;HTU21D;51436;44.692;39.214;2023-11-21T09:18:37;7.84;69.04
64924;HTU21D;51436;44.692;39.214;2023-11-21T09:21:03;7.86;68.99
64924;HTU21D;51436;44.692;39.214;2023-11-21T09:23:30;7.86;68.99
64924;HTU21D;51436;44.692;39.214;2023-11-21T09:25:56;7.87;69.00
64924;HTU21D;51436;44.692;39.214;2023-11-21T09:28:26;7.87;68.97
64924;HTU21D;51436;44.692;39.214;2023-11-21T09:30:56;7.84;69.07
64924;HTU21D;51436;44.692;39.214;2023-11-21T09:33:23;7.83;69.13
64924;HTU21D;51436;44.692;39.214;2023-11-21T09:35:50;7.85;69.09
64924;HTU21D;51436;44.692;39.214;2023-11-21T09:38:18;7.93;69.04
64924;HTU21D;51436;44.692;39.214;2023-11-21T09:40:45;8.03;68.76
64924;HTU21D;51436;44.692;39.214;2023-11-21T09:43:16;8.14;68.55
64924;HTU21D;51436;44.692;39.214;2023-11-21T09:45:48;8.12;68.62
64924;HTU21D;51436;44.692;39.214;2023-11-21T09:48:17;8.14;68.62
64924;HTU21D;51436;44.692;39.214;2023-11-21T09:50:44;8.15;68.57
64924;HTU21D;51436;44.692;39.214;2023-11-21T09:53:21;8.18;68.58
64924;HTU21D;51436;44.692;39.214;2023-11-21T09:55:51;8.16;68.60
64924;HTU21D;51436;44.692;39.214;2023-11-21T09:58:19;8.06;68.75
64924;HTU21D;51436;44.692;39.214;2023-11-21T10:00:48;7.99;68.96
64924;HTU21D;51436;44.692;39.214;2023-11-21T10:03:15;7.93;69.10
64924;HTU21D;51436;44.692;39.214;2023-11-21T10:05:43;7.94;69.06
64924;HTU21D;51436;44.692;39.214;2023-11-21T10:08:12;8.03;68.87
64924;HTU21D;51436;44.692;39.214;2023-11-21T10:10:43;7.98;68.96
64924;HTU21D;51436;44.692;39.214;2023-11-21T10:13:14;7.91;69.04
64924;HTU21D;51436;44.692;39.214;2023-11-21T10:15:43;7.90;69.16
64924;HTU21D;51436;44.692;39.214;2023-11-21T10:18:15;7.97;69.00
64924;HTU21D;51436;44.692;39.214;2023-11-21T10:20:41;8.07;68.78
64924;HTU21D;51436;44.692;39.214;2023-11-21T10:23:09;8.03;68.75
64924;HTU21D;51436;44.692;39.214;2023-11-21T10:25:37;7.97;68.94
64924;HTU21D;51436;44.692;39.214;2023-11-21T10:28:04;7.88;69.05
64924;HTU21D;51436;44.692;39.214;2023-11-21T10:30:35;7.86;69.10
64924;HTU21D;51436;44.692;39.214;2023-11-21T10:33:07;7.88;69.07
64924;HTU21D;51436;44.692;39.214;2023-11-21T10:35:46;7.77;69.24
64924;HTU21D;51436;44.692;39.214;2023-11-21T10:38:14;7.71;69.42
64924;HTU21D;51436;44.692;39.214;2023-11-21T10:40:41;7.64;69.49
64924;HTU21D;51436;44.692;39.214;2023-11-21T10:44:14;7.67;69.38
64924;HTU21D;51436;44.692;39.214;2023-11-21T10:46:35;7.63;69.45
64924;HTU21D;51436;44.692;39.214;2023-11-21T10:49:01;7.69;69.32
64924;HTU21D;51436;44.692;39.214;2023-11-21T10:51:28;7.70;69.25
64924;HTU21D;51436;44.692;39.214;2023-11-21T10:53:54;7.77;69.13
64924;HTU21D;51436;44.692;39.214;2023-11-21T10:56:23;7.90;68.84
64924;HTU21D;51436;44.692;39.214;2023-11-21T10:58:50;7.99;68.67
64924;HTU21D;51436;44.692;39.214;2023-11-21T11:01:20;8.04;68.59
64924;HTU21D;51436;44.692;39.214;2023-11-21T11:03:48;8.04;68.57
64924;HTU21D;51436;44.692;39.214;2023-11-21T11:06:15;8.02;68.59
64924;HTU21D;51436;44.692;39.214;2023-11-21T11:08:42;7.97;68.77
64924;HTU21D;51436;44.692;39.214;2023-11-21T11:11:09;7.94;68.84
64924;HTU21D;51436;44.692;39.214;2023-11-21T11:13:37;7.98;68.75
64924;HTU21D;51436;44.692;39.214;2023-11-21T11:16:04;7.98;68.74
64924;HTU21D;51436;44.692;39.214;2023-11-21T11:18:33;8.00;68.75
64924;HTU21D;51436;44.692;39.214;2023-11-21T11:21:34;8.05;68.63
64924;HTU21D;51436;44.692;39.214;2023-11-21T11:28:01;8.03;68.69
64924;HTU21D;51436;44.692;39.214;2023-11-21T11:33:53;7.97;68.65
64924;HTU21D;51436;44.692;39.214;2023-11-21T11:36:48;7.81;68.93
64924;HTU21D;51436;44.692;39.214;2023-11-21T11:42:05;7.71;69.08
64924;HTU21D;51436;44.692;39.214;2023-11-21T11:47:24;7.72;68.95
64924;HTU21D;51436;44.692;39.214;2023-11-21T11:50:06;7.71;68.94
64924;HTU21D;51436;44.692;39.214;2023-11-21T11:52:39;7.68;69.00
64924;HTU21D;51436;44.692;39.214;2023-11-21T11:55:16;7.71;68.94
64924;HTU21D;51436;44.692;39.214;2023-11-21T11:58:08;7.78;68.71
64924;HTU21D;51436;44.692;39.214;2023-11-21T12:00:38;7.76;68.74
64924;HTU21D;51436;44.692;39.214;2023-11-21T12:03:07;7.77;68.73
64924;HTU21D;51436;44.692;39.214;2023-11-21T12:05:35;7.82;68.64
64924;HTU21D;51436;44.692;39.214;2023-11-21T12:08:06;7.85;68.55
64924;HTU21D;51436;44.692;39.214;2023-11-21T12:10:56;7.90;68.45
64924;HTU21D;51436;44.692;39.214;2023-11-21T12:13:38;7.91;68.52
64924;HTU21D;51436;44.692;39.214;2023-11-21T12:16:08;7.98;68.35
64924;HTU21D;51436;44.692;39.214;2023-11-21T12:18:34;8.04;68.18
64924;HTU21D;51436;44.692;39.214;2023-11-21T12:21:24;7.98;68.30
64924;HTU21D;51436;44.692;39.214;2023-11-21T12:23:53;7.97;68.33
64924;HTU21D;51436;44.692;39.214;2023-11-21T12:26:19;7.92;68.43
64924;HTU21D;51436;44.692;39.214;2023-11-21T12:28:57;7.87;68.55
64924;HTU21D;51436;44.692;39.214;2023-11-21T12:31:26;7.79;68.62
64924;HTU21D;51436;44.692;39.214;2023-11-21T12:33:52;7.72;68.81
64924;HTU21D;51436;44.692;39.214;2023-11-21T12:36:19;7.65;68.87
64924;HTU21D;51436;44.692;39.214;2023-11-21T12:38:45;7.65;68.89
64924;HTU21D;51436;44.692;39.214;2023-11-21T12:41:12;7.71;68.74
64924;HTU21D;51436;44.692;39.214;2023-11-21T12:43:38;7.76;68.61
64924;HTU21D;51436;44.692;39.214;2023-11-21T12:46:09;7.79;68.50
64924;HTU21D;51436;44.692;39.214;2023-11-21T12:48:59;7.84;68.45
64924;HTU21D;51436;44.692;39.214;2023-11-21T12:51:29;7.81;68.41
64924;HTU21D;51436;44.692;39.214;2023-11-21T12:53:55;7.78;68.51
64924;HTU21D;51436;44.692;39.214;2023-11-21T12:56:22;7.74;68.58
64924;HTU21D;51436;44.692;39.214;2023-11-21T12:58:54;7.75;68.56
64924;HTU21D;51436;44.692;39.214;2023-11-21T13:01:25;7.75;68.52
64924;HTU21D;51436;44.692;39.214;2023-11-21T13:03:54;7.73;68.59
64924;HTU21D;51436;44.692;39.214;2023-11-21T13:06:23;7.72;68.59
64924;HTU21D;51436;44.692;39.214;2023-11-21T13:08:54;7.72;68.57
64924;HTU21D;51436;44.692;39.214;2023-11-21T13:11:23;7.68;68.65
64924;HTU21D;51436;44.692;39.214;2023-11-21T13:13:52;7.69;68.66
64924;HTU21D;51436;44.692;39.214;2023-11-21T13:16:22;7.68;68.65
64924;HTU21D;51436;44.692;39.214;2023-11-21T13:18:50;7.68;68.64
64924;HTU21D;51436;44.692;39.214;2023-11-21T13:21:16;7.62;68.72
64924;HTU21D;51436;44.692;39.214;2023-11-21T13:24:06;7.55;68.87
64924;HTU21D;51436;44.692;39.214;2023-11-21T13:26:33;7.48;69.00
64924;HTU21D;51436;44.692;39.214;2023-11-21T13:29:02;7.46;69.04
64924;HTU21D;51436;44.692;39.214;2023-11-21T13:31:31;7.46;69.05
64924;HTU21D;51436;44.692;39.214;2023-11-21T13:33:58;7.46;69.05
64924;HTU21D;51436;44.692;39.214;2023-11-21T13:36:31;7.50;68.96
64924;HTU21D;51436;44.692;39.214;2023-11-21T13:38:59;7.53;68.90
64924;HTU21D;51436;44.692;39.214;2023-11-21T13:41:30;7.55;68.85
64924;HTU21D;51436;44.692;39.214;2023-11-21T13:43:57;7.54;68.84
64924;HTU21D;51436;44.692;39.214;2023-11-21T13:46:41;7.38;69.13
64924;HTU21D;51436;44.692;39.214;2023-11-21T13:49:08;7.30;69.36
64924;HTU21D;51436;44.692;39.214;2023-11-21T13:51:38;7.44;69.09
64924;HTU21D;51436;44.692;39.214;2023-11-21T13:54:10;7.64;68.78
64924;HTU21D;51436;44.692;39.214;2023-11-21T13:56:37;7.96;68.11
64924;HTU21D;51436;44.692;39.214;2023-11-21T13:59:04;8.05;67.94
64924;HTU21D;51436;44.692;39.214;2023-11-21T14:01:39;8.11;67.97
64924;HTU21D;51436;44.692;39.214;2023-11-21T14:04:31;8.30;67.87
64924;HTU21D;51436;44.692;39.214;2023-11-21T14:07:19;8.53;67.55
64924;HTU21D;51436;44.692;39.214;2023-11-21T14:09:58;8.74;67.29
64924;HTU21D;51436;44.692;39.214;2023-11-21T14:12:24;8.77;67.34
64924;HTU21D;51436;44.692;39.214;2023-11-21T14:15:14;8.85;67.48
64924;HTU21D;51436;44.692;39.214;2023-11-21T14:17:45;8.89;67.54
64924;HTU21D;51436;44.692;39.214;2023-11-21T14:20:11;8.85;67.65
64924;HTU21D;51436;44.692;39.214;2023-11-21T14:22:42;8.87;67.72
64924;HTU21D;51436;44.692;39.214;2023-11-21T14:25:09;8.85;67.80
64924;HTU21D;51436;44.692;39.214;2023-11-21T14:27:37;8.85;67.87
64924;HTU21D;51436;44.692;39.214;2023-11-21T14:30:04;8.86;67.86
64924;HTU21D;51436;44.692;39.214;2023-11-21T14:32:31;8.90;67.88
64924;HTU21D;51436;44.692;39.214;2023-11-21T14:34:57;8.97;67.73
64924;HTU21D;51436;44.692;39.214;2023-11-21T14:37:23;8.97;67.74
64924;HTU21D;51436;44.692;39.214;2023-11-21T14:39:50;8.88;68.02
64924;HTU21D;51436;44.692;39.214;2023-11-21T14:42:16;8.82;68.23
64924;HTU21D;51436;44.692;39.214;2023-11-21T14:44:50;8.78;68.33
64924;HTU21D;51436;44.692;39.214;2023-11-21T14:47:18;8.75;68.38
64924;HTU21D;51436;44.692;39.214;2023-11-21T14:49:51;8.77;68.33
64924;HTU21D;51436;44.692;39.214;2023-11-21T14:52:22;8.92;68.00
64924;HTU21D;51436;44.692;39.214;2023-11-21T14:55:04;9.00;67.82
64924;HTU21D;51436;44.692;39.214;2023-11-21T14:57:49;9.00;67.87
64924;HTU21D;51436;44.692;39.214;2023-11-21T15:00:21;8.94;67.84
64924;HTU21D;51436;44.692;39.214;2023-11-21T15:03:00;8.70;68.26
64924;HTU21D;51436;44.692;39.214;2023-11-21T15:05:28;8.43;68.71
64924;HTU21D;51436;44.692;39.214;2023-11-21T15:07:55;8.14;69.29
64924;HTU21D;51436;44.692;39.214;2023-11-21T15:10:24;7.90;69.68
64924;HTU21D;51436;44.692;39.214;2023-11-21T15:13:05;7.78;69.80
64924;HTU21D;51436;44.692;39.214;2023-11-21T15:15:37;7.73;69.74
64924;HTU21D;51436;44.692;39.214;2023-11-21T15:18:04;7.75;69.58
64924;HTU21D;51436;44.692;39.214;2023-11-21T15:20:30;7.73;69.49
64924;HTU21D;51436;44.692;39.214;2023-11-21T15:22:57;7.73;69.37
64924;HTU21D;51436;44.692;39.214;2023-11-21T15:25:23;7.73;69.29
64924;HTU21D;51436;44.692;39.214;2023-11-21T15:27:50;7.73;69.20
64924;HTU21D;51436;44.692;39.214;2023-11-21T15:30:16;7.72;69.13
64924;HTU21D;51436;44.692;39.214;2023-11-21T15:32:51;7.69;69.13
64924;HTU21D;51436;44.692;39.214;2023-11-21T15:35:22;7.62;69.20
64924;HTU21D;51436;44.692;39.214;2023-11-21T15:37:49;7.55;69.35
64924;HTU21D;51436;44.692;39.214;2023-11-21T15:40:16;7.52;69.42
64924;HTU21D;51436;44.692;39.214;2023-11-21T15:42:43;7.49;69.39